createdAt,value
2023-02-19T00:01:05.341Z,17
2023-02-19T00:16:05.776Z,38
2023-02-19T00:31:05.122Z,19
2023-02-19T00:46:05.733Z,23
2023-02-19T01:01:05.819Z,12
2023-02-19T01:16:06.104Z,18
2023-02-19T01:31:05.773Z,29
2023-02-19T01:46:05.119Z,46
2023-02-19T02:01:05.269Z,31
2023-02-19T02:16:05.531Z,40
2023-02-19T02:31:05.755Z,27
2023-02-19T02:46:05.562Z,44
2023-02-19T03:01:06.028Z,33
2023-02-19T03:16:05.233Z,26
2023-02-19T03:31:05.720Z,17
2023-02-19T03:46:05.379Z,10
2023-02-19T04:01:05.450Z,23
2023-02-19T04:16:05.632Z,35
2023-02-19T04:31:05.884Z,20
2023-02-19T04:46:05.187Z,33
2023-02-19T05:01:05.391Z,41
2023-02-19T05:16:05.697Z,63
2023-02-19T05:31:05.039Z,82
2023-02-19T05:46:05.184Z,55
2023-02-19T06:01:05.244Z,95
2023-02-19T06:16:05.518Z,28
2023-02-19T06:31:05.227Z,17
2023-02-19T06:46:05.284Z,26
2023-02-19T07:01:05.662Z,24
2023-02-19T07:16:05.036Z,39
2023-02-19T07:31:05.855Z,44
2023-02-19T07:46:05.282Z,55
2023-02-19T08:01:05.080Z,59
2023-02-19T08:16:24.347Z,44
2023-02-19T08:31:05.818Z,35
2023-02-19T08:46:05.354Z,46
2023-02-19T09:01:05.221Z,33
2023-02-19T09:16:05.501Z,33
2023-02-19T09:31:05.921Z,26
2023-02-19T09:46:05.564Z,14
2023-02-19T10:01:05.635Z,25
2023-02-19T10:16:05.686Z,7
2023-02-19T10:31:05.262Z,11
2023-02-19T10:46:05.519Z,11
2023-02-19T11:01:06.588Z,13
2023-02-19T11:16:05.079Z,12
2023-02-19T11:31:05.392Z,8
2023-02-19T11:46:05.640Z,10
2023-02-19T12:01:05.965Z,16
2023-02-19T12:16:05.531Z,16
2023-02-19T12:31:05.751Z,11
2023-02-19T12:46:06.012Z,16
2023-02-19T13:01:05.255Z,13
2023-02-19T13:16:05.403Z,15
2023-02-19T13:31:05.793Z,13
2023-02-19T13:46:04.880Z,15
2023-02-19T14:01:05.452Z,17
2023-02-19T14:16:05.706Z,14
2023-02-19T14:31:05.710Z,20
2023-02-19T14:46:05.003Z,16
2023-02-19T15:01:05.215Z,14
2023-02-19T15:16:05.637Z,16
2023-02-19T15:31:05.603Z,16
2023-02-19T15:46:05.143Z,18
2023-02-19T16:01:05.528Z,14
2023-02-19T16:16:05.877Z,18
2023-02-19T16:31:05.131Z,25
2023-02-19T16:46:05.439Z,46
2023-02-19T17:01:05.647Z,30
2023-02-19T17:16:06.211Z,24
2023-02-19T17:31:04.883Z,54
2023-02-19T17:46:05.191Z,23
2023-02-19T18:01:05.120Z,39
2023-02-19T18:16:05.330Z,42
2023-02-19T18:31:05.789Z,24
2023-02-19T18:46:05.050Z,28
2023-02-19T19:01:05.097Z,34
2023-02-19T19:16:05.105Z,26
2023-02-19T19:31:05.294Z,43
2023-02-19T19:46:05.523Z,35
2023-02-19T20:01:05.625Z,42
2023-02-19T20:16:05.726Z,41
2023-02-19T20:31:05.565Z,42
2023-02-19T20:46:05.241Z,36
2023-02-19T21:01:05.415Z,35
2023-02-19T21:16:05.263Z,41
2023-02-19T21:31:05.136Z,39
2023-02-19T21:46:05.502Z,38
2023-02-19T22:01:04.816Z,35
2023-02-19T22:16:05.743Z,31
2023-02-19T22:31:05.490Z,37
2023-02-19T22:46:05.234Z,40
2023-02-19T23:01:05.755Z,39
2023-02-19T23:16:04.862Z,32
2023-02-19T23:31:04.929Z,25
2023-02-19T23:46:05.905Z,23
